Time;durP1;ratioP1;P1;durP2;ratioP2;P2;SDS_P1;SDS_P2;PMS_P1;PMS_P2;Temp;Humidity;BMP_temperature;BMP_pressure;BME280_temperature;BME280_humidity;BME280_pressure;Samples;Min_cycle;Max_cycle;Signal;HPM_P1;HPM_P2
2022/10/17 00:02:16;;;;;;;;;;;11.20;99.90;;;9.44;89.36;101398.28;10482353;28;19968;-85
2022/10/17 00:07:19;;;;;;;;;;;11.20;99.90;;;9.36;89.25;101397.13;10482792;28;19928;-84
2022/10/17 00:12:22;;;;;;;;;;;11.10;99.90;;;9.37;89.70;101408.56;10471782;28;19928;-85
2022/10/17 00:17:25;;;;;;;;;;;11.10;99.90;;;9.32;89.47;101398.34;10483272;28;19964;-84
2022/10/17 00:22:28;;;;;;;;;;;11.10;99.90;;;9.29;89.44;101395.94;10502644;28;20454;-84
2022/10/17 00:27:34;;;;;;;;;;;11.10;99.90;;;9.26;89.28;101406.00;10464932;28;19935;-85
2022/10/17 00:32:37;;;;;;;;;;;11.00;99.90;;;9.22;89.40;101408.03;10482445;28;19928;-85
2022/10/17 00:37:40;;;;;;;;;;;11.00;99.90;;;9.18;89.19;101398.69;10456063;28;20305;-85
2022/10/17 00:42:42;;;;;;;;;;;11.00;99.90;;;9.13;89.23;101400.03;10467869;28;20365;-85
2022/10/17 00:47:50;;;;;;;;;;;10.90;99.90;;;9.09;89.30;101402.09;10481820;28;19972;-84
2022/10/17 00:52:54;;;;;;;;;;;10.90;99.90;;;9.01;89.51;101400.09;10484334;28;20401;-84
2022/10/17 00:57:59;;;;;;;;;;;10.80;99.90;;;8.98;89.36;101402.16;10437350;28;19929;-85
2022/10/17 01:03:02;;;;;;;;;;;10.70;99.90;;;8.90;89.41;101397.50;10491437;28;19936;-84
2022/10/17 01:08:06;;;;;;;;;;;10.70;99.90;;;8.87;89.39;101394.25;10462119;28;19928;-84
2022/10/17 01:13:21;;;;;;;;;;;10.70;99.90;;;8.84;89.71;101398.00;10480264;28;19928;-84
2022/10/17 01:18:31;;;;;;;;;;;10.60;99.90;;;8.82;89.62;101392.00;10478379;28;19964;-85
2022/10/17 01:23:55;;;;;;;;;;;10.60;99.90;;;8.77;89.51;101400.31;10467613;28;19928;-85
2022/10/17 01:29:13;;;;;;;;;;;10.60;99.90;;;8.72;89.40;101393.72;10491403;28;19935;-85
2022/10/17 01:34:48;;;;;;;;;;;10.50;99.90;;;8.68;89.56;101400.22;10520477;28;20150;-84
2022/10/17 01:40:15;;;;;;;;;;;10.50;99.90;;;8.62;89.63;101406.88;10456706;28;20433;-85
2022/10/17 01:45:27;;;;;;;;;;;10.40;99.90;;;8.55;89.67;101403.06;10511140;28;20311;-85
2022/10/17 01:50:36;;;;;;;;;;;10.40;99.90;;;8.51;89.91;101410.41;10509613;28;19933;-85
2022/10/17 01:55:43;;;;;;;;;;;10.30;99.90;;;8.48;90.15;101409.81;10512652;28;20034;-84
2022/10/17 02:00:47;;;;;;;;;;;10.30;99.90;;;8.45;90.48;101412.69;10525425;28;20276;-85
2022/10/17 02:05:50;;;;;;;;;;;10.30;99.90;;;8.44;90.44;101411.88;10510322;28;19971;-85
2022/10/17 02:11:02;;;;;;;;;;;10.30;99.90;;;8.40;90.55;101412.25;10510859;28;20023;-85
2022/10/17 02:16:29;;;;;;;;;;;10.20;99.90;;;8.37;90.52;101415.97;10494711;28;19932;-85
2022/10/17 02:21:38;;;;;;;;;;;10.20;99.90;;;8.30;90.45;101423.56;10512051;28;19979;-85
2022/10/17 02:26:48;;;;;;;;;;;10.10;99.90;;;8.23;90.52;101424.19;10473817;28;19935;-84
2022/10/17 02:32:04;;;;;;;;;;;10.00;99.90;;;8.22;91.06;101427.78;10508551;28;19935;-85
2022/10/17 02:37:09;;;;;;;;;;;10.00;99.90;;;8.19;91.18;101420.91;10497240;28;19972;-85
2022/10/17 02:42:13;;;;;;;;;;;10.00;99.90;;;8.20;91.12;101425.25;10494319;28;19928;-85
2022/10/17 02:47:35;;;;;;;;;;;10.00;99.90;;;8.18;91.34;101424.53;10499424;28;19928;-85
2022/10/17 02:52:41;;;;;;;;;;;10.00;99.90;;;8.17;91.48;101435.25;10529878;28;19972;-85
2022/10/17 02:57:51;;;;;;;;;;;10.00;99.90;;;8.10;91.32;101432.25;10509460;28;19976;-85
2022/10/17 03:02:54;;;;;;;;;;;10.00;99.90;;;8.04;91.44;101433.59;10509780;28;19935;-85
2022/10/17 03:07:57;;;;;;;;;;;9.90;99.90;;;8.01;91.44;101448.84;10511743;28;19928;-86
2022/10/17 03:13:00;;;;;;;;;;;9.80;99.90;;;7.97;91.71;101445.59;10513131;28;19929;-86
2022/10/17 03:18:03;;;;;;;;;;;9.80;99.90;;;7.96;91.83;101451.00;10524910;28;20354;-86
2022/10/17 03:23:05;;;;;;;;;;;9.70;99.90;;;7.96;92.14;101456.31;10493089;28;20281;-86
2022/10/17 03:28:10;;;;;;;;;;;9.70;99.90;;;7.95;92.08;101467.88;10491612;28;19928;-86
2022/10/17 03:33:13;;;;;;;;;;;9.80;99.90;;;7.94;91.98;101471.47;10525050;28;19959;-86
2022/10/17 03:38:15;;;;;;;;;;;9.70;99.90;;;7.90;92.28;101470.88;10508359;28;19935;-85
2022/10/17 03:43:18;;;;;;;;;;;9.70;99.90;;;7.90;92.28;101478.81;10504415;28;19936;-85
2022/10/17 03:48:21;;;;;;;;;;;9.70;99.90;;;7.88;92.59;101480.75;10519563;28;19928;-86
2022/10/17 03:53:24;;;;;;;;;;;9.70;99.90;;;7.84;92.32;101487.22;10509676;28;19928;-86
2022/10/17 03:58:27;;;;;;;;;;;9.70;99.90;;;7.83;92.32;101501.41;10490115;28;19928;-85
2022/10/17 04:03:31;;;;;;;;;;;9.70;99.90;;;7.79;92.50;101489.38;10541106;28;19951;-86
2022/10/17 04:08:34;;;;;;;;;;;9.70;99.90;;;7.78;92.51;101499.13;10483954;28;19928;-87
2022/10/17 04:13:36;;;;;;;;;;;9.60;99.90;;;7.73;92.47;101501.28;10510321;28;19971;-88
2022/10/17 04:18:40;;;;;;;;;;;9.60;99.90;;;7.70;92.75;101501.53;10483271;28;19929;-90
2022/10/17 04:23:43;;;;;;;;;;;9.50;99.90;;;7.70;93.02;101498.03;10485501;28;19929;-90
2022/10/17 04:28:45;;;;;;;;;;;9.50;99.90;;;7.68;93.03;101511.38;10500924;28;19928;-90
2022/10/17 04:33:49;;;;;;;;;;;9.50;99.90;;;7.65;93.15;101503.69;10493048;28;19978;-90
2022/10/17 04:38:52;;;;;;;;;;;9.50;99.90;;;7.65;93.45;101510.78;10493132;28;19929;-90
2022/10/17 04:43:54;;;;;;;;;;;9.50;99.90;;;7.64;93.09;101515.22;10509348;28;20327;-90
2022/10/17 04:48:57;;;;;;;;;;;9.50;99.90;;;7.58;93.21;101515.69;10492665;28;19928;-91
2022/10/17 04:54:00;;;;;;;;;;;9.40;99.90;;;7.59;93.45;101517.38;10509839;28;19934;-90
2022/10/17 04:59:03;;;;;;;;;;;9.40;99.90;;;7.62;93.56;101527.72;10489758;28;19935;-90
2022/10/17 05:04:06;;;;;;;;;;;9.50;99.90;;;7.59;93.56;101522.66;10492289;28;19928;-90
2022/10/17 05:09:08;;;;;;;;;;;9.40;99.90;;;7.59;93.55;101535.88;10503498;28;19935;-90
2022/10/17 05:14:11;;;;;;;;;;;9.40;99.90;;;7.62;93.51;101548.06;10509996;28;20376;-89
2022/10/17 05:19:14;;;;;;;;;;;9.50;99.90;;;7.62;93.73;101548.91;10547194;27;19978;-90
2022/10/17 05:24:17;;;;;;;;;;;9.50;99.90;;;7.63;93.77;101552.38;10566421;28;19928;-90
2022/10/17 05:29:20;;;;;;;;;;;9.50;99.90;;;7.66;93.79;101562.72;10496693;28;20338;-90
2022/10/17 05:34:23;;;;;;;;;;;9.50;99.90;;;7.65;93.89;101564.53;10532803;28;19929;-88
2022/10/17 05:39:26;;;;;;;;;;;9.60;99.90;;;7.68;93.73;101572.25;10516751;28;19976;-88
2022/10/17 05:44:29;;;;;;;;;;;9.60;99.90;;;7.70;93.49;101575.59;10530667;28;19935;-90
2022/10/17 05:49:32;;;;;;;;;;;9.60;99.90;;;7.71;93.57;101581.75;10512824;28;19928;-89
2022/10/17 05:54:50;;;;;;;;;;;9.60;99.90;;;7.80;93.91;101599.59;10513464;28;19956;-89
2022/10/17 05:59:54;;;;;;;;;;;9.70;99.90;;;7.90;94.02;101591.78;10492903;28;20350;-90
2022/10/17 06:04:58;;;;;;;;;;;9.70;99.90;;;8.02;94.17;101598.78;10508987;28;20019;-89
2022/10/17 06:10:07;;;;;;;;;;;9.80;99.90;;;8.22;94.60;101605.22;10529461;28;20376;-90
2022/10/17 06:15:15;;;;;;;;;;;10.00;99.90;;;8.41;94.72;101618.75;10481152;28;19928;-90
2022/10/17 06:20:18;;;;;;;;;;;10.20;99.90;;;8.65;94.93;101625.75;10522432;28;19935;-90
2022/10/17 06:25:22;;;;;;;;;;;10.40;99.90;;;8.82;95.08;101626.09;10541448;28;19982;-90
2022/10/17 06:30:36;;;;;;;;;;;10.70;99.90;;;9.10;95.32;101637.13;10549027;28;19917;-88
2022/10/17 06:35:51;;;;;;;;;;;10.90;99.90;;;9.36;95.53;101630.59;10537299;28;19928;-90
2022/10/17 06:41:01;;;;;;;;;;;11.20;99.90;;;9.65;95.41;101645.91;10491961;28;19935;-90
2022/10/17 06:46:05;;;;;;;;;;;11.50;99.90;;;9.86;95.21;101645.94;10491546;28;19928;-90
2022/10/17 06:51:10;;;;;;;;;;;11.80;99.90;;;10.09;94.60;101644.88;10540013;28;19932;-90
2022/10/17 06:56:13;;;;;;;;;;;12.00;99.90;;;10.40;93.87;101656.41;10505857;28;19935;-90
2022/10/17 07:01:15;;;;;;;;;;;12.20;99.90;;;10.63;93.76;101653.59;10514869;28;19990;-89
2022/10/17 07:06:19;;;;;;;;;;;12.50;99.90;;;10.95;93.31;101667.56;10514361;28;19934;-90
2022/10/17 07:11:22;;;;;;;;;;;12.70;99.90;;;11.13;91.90;101666.94;10505915;28;20011;-90
2022/10/17 07:16:25;;;;;;;;;;;13.00;99.90;;;11.38;90.46;101673.56;10519497;28;19935;-90
2022/10/17 07:21:28;;;;;;;;;;;13.20;99.90;;;12.43;91.78;101681.75;10496410;28;19958;-90
2022/10/17 07:26:31;;;;;;;;;;;13.60;99.90;;;14.13;87.70;101671.38;10507444;28;20012;-89
2022/10/17 07:31:35;;;;;;;;;;;14.40;99.90;;;15.53;81.21;101662.06;10486263;28;20289;-90
2022/10/17 07:36:38;;;;;;;;;;;15.40;99.90;;;16.54;74.06;101660.88;10494720;28;20364;-90
2022/10/17 07:41:41;;;;;;;;;;;16.10;99.90;;;16.85;67.64;101669.91;10494934;28;20342;-90
2022/10/17 07:46:44;;;;;;;;;;;16.70;99.90;;;16.46;66.01;101669.78;10509415;28;20027;-90
2022/10/17 07:51:47;;;;;;;;;;;17.00;99.90;;;15.98;64.47;101668.81;10510442;28;19928;-91
2022/10/17 07:56:50;;;;;;;;;;;17.10;99.90;;;15.73;65.26;101676.00;10511618;28;19928;-90
2022/10/17 08:01:56;;;;;;;;;;;17.00;99.90;;;15.49;65.30;101674.09;10509566;28;19932;-90
2022/10/17 08:06:59;;;;;;;;;;;17.00;99.30;;;15.31;65.20;101683.25;10527875;28;19978;-90
2022/10/17 08:12:21;;;;;;;;;;;17.00;98.30;;;15.33;66.41;101678.56;10511633;28;20358;-90
2022/10/17 08:17:24;;;;;;;;;;;17.00;97.80;;;15.34;64.56;101677.56;10492372;28;19982;-90
2022/10/17 08:22:27;;;;;;;;;;;17.10;97.50;;;15.46;64.08;101681.59;10527806;28;19972;-89
2022/10/17 08:27:32;;;;;;;;;;;17.20;95.80;;;15.61;63.89;101684.50;10488940;28;19928;-90
2022/10/17 08:32:35;;;;;;;;;;;17.30;96.40;;;15.90;63.41;101681.41;10508736;28;20007;-90
2022/10/17 08:37:38;;;;;;;;;;;17.50;95.80;;;16.03;61.84;101673.69;10526842;28;19932;-89
2022/10/17 08:43:26;;;;;;;;;;;17.70;94.80;;;16.08;60.12;101683.91;10475739;28;19928;-90
2022/10/17 08:48:36;;;;;;;;;;;17.80;94.60;;;16.13;60.18;101673.50;10459817;28;19929;-90
2022/10/17 08:53:52;;;;;;;;;;;17.90;93.90;;;16.14;59.71;101684.09;10480156;28;20448;-89
2022/10/17 08:58:55;;;;;;;;;;;17.90;93.30;;;16.27;60.17;101687.09;10486337;28;20013;-89
2022/10/17 09:03:58;;;;;;;;;;;18.00;92.70;;;16.51;59.87;101685.38;10506451;28;19928;-89
2022/10/17 09:09:19;;;;;;;;;;;18.20;92.20;;;16.65;58.43;101683.84;10535709;28;19932;-90
2022/10/17 09:14:47;;;;;;;;;;;18.40;92.40;;;16.73;58.64;101679.31;10540764;28;19932;-89
2022/10/17 09:20:13;;;;;;;;;;;18.50;92.00;;;16.76;58.39;101681.66;10508103;28;19934;-90
2022/10/17 09:25:19;;;;;;;;;;;18.60;91.30;;;16.98;56.88;101672.03;10523668;28;20416;-90
2022/10/17 09:30:41;;;;;;;;;;;18.70;89.80;;;17.00;55.61;101678.03;10505650;28;20007;-89
2022/10/17 09:35:48;;;;;;;;;;;18.80;90.30;;;17.19;56.64;101670.56;10484776;28;20064;-90
2022/10/17 09:40:58;;;;;;;;;;;18.90;87.70;;;17.37;56.76;101663.91;10522242;28;20023;-90
2022/10/17 09:46:01;;;;;;;;;;;19.00;89.40;;;17.50;54.01;101659.81;10522191;28;19928;-90
2022/10/17 09:51:05;;;;;;;;;;;19.20;88.10;;;17.73;55.14;101665.25;10539110;28;19932;-90
2022/10/17 09:56:26;;;;;;;;;;;19.40;87.90;;;17.88;53.55;101664.28;10527859;28;19929;-90
2022/10/17 10:01:30;;;;;;;;;;;19.60;86.00;;;18.11;53.94;101658.03;10537483;28;20033;-89
2022/10/17 10:06:33;;;;;;;;;;;19.80;84.10;;;18.34;52.95;101655.31;10501701;28;19928;-91
2022/10/17 10:11:56;;;;;;;;;;;20.10;85.40;;;18.61;52.31;101654.69;10514832;28;19933;-90
2022/10/17 10:17:04;;;;;;;;;;;20.30;84.50;;;18.91;52.04;101644.78;10513925;28;19935;-90
2022/10/17 10:22:18;;;;;;;;;;;20.60;82.90;;;19.22;50.12;101641.84;10528657;28;19928;-90
2022/10/17 10:27:21;;;;;;;;;;;20.90;82.50;;;19.49;50.00;101639.41;10523373;28;19929;-90
2022/10/17 10:32:27;;;;;;;;;;;21.10;81.30;;;19.56;48.33;101632.25;10512831;28;19928;-91
2022/10/17 10:37:40;;;;;;;;;;;21.60;79.30;;;19.78;47.80;101633.09;10514604;28;20296;-90
2022/10/17 10:42:53;;;;;;;;;;;22.10;78.30;;;20.19;47.44;101622.44;10508140;28;19928;-90
2022/10/17 10:48:01;;;;;;;;;;;22.60;76.90;;;20.70;45.04;101615.94;10496966;28;19936;-87
2022/10/17 10:53:29;;;;;;;;;;;23.20;73.30;;;21.35;44.85;101619.94;10513243;28;19937;-87
2022/10/17 10:59:07;;;;;;;;;;;23.80;72.40;;;22.31;42.99;101609.63;10529761;28;20391;-87
2022/10/17 11:04:41;;;;;;;;;;;24.80;71.00;;;23.06;40.78;101609.19;10490665;28;19928;-88
2022/10/17 11:09:55;;;;;;;;;;;25.70;67.10;;;23.67;39.24;101597.75;10503043;28;19936;-87
2022/10/17 11:15:13;;;;;;;;;;;26.40;63.80;;;24.42;38.09;101595.84;10511627;28;19928;-88
2022/10/17 11:20:38;;;;;;;;;;;27.00;56.50;;;24.87;37.32;101594.69;10511701;28;19928;-88
2022/10/17 11:25:41;;;;;;;;;;;27.50;60.80;;;24.99;35.27;101590.13;10528235;28;19928;-88
2022/10/17 11:30:59;;;;;;;;;;;27.70;54.30;;;25.00;34.49;101581.72;10469071;28;19944;-89
2022/10/17 11:36:08;;;;;;;;;;;27.60;55.40;;;25.27;34.81;101582.22;10530034;28;19928;-88
2022/10/17 11:41:16;;;;;;;;;;;27.90;52.10;;;25.40;34.62;101573.03;10511591;28;19929;-88
2022/10/17 11:46:25;;;;;;;;;;;28.10;53.50;;;25.44;33.62;101565.25;10527388;28;19928;-88
2022/10/17 11:51:35;;;;;;;;;;;28.10;52.10;;;24.94;34.05;101565.50;10470012;28;19929;-88
2022/10/17 11:57:16;;;;;;;;;;;27.40;52.80;;;;;;10459799;28;19975;-87
2022/10/17 12:02:30;;;;;;;;;;;26.40;53.00;;;23.22;35.52;101568.84;10507115;28;19929;-88
2022/10/17 12:07:45;;;;;;;;;;;25.40;52.30;;;22.17;36.97;101568.16;10495368;28;19932;-91
2022/10/17 12:12:48;;;;;;;;;;;24.40;53.70;;;21.68;38.77;101567.78;10525921;28;19928;-89
2022/10/17 12:18:02;;;;;;;;;;;23.60;55.00;;;21.37;39.74;101559.22;10511062;28;19928;-87
2022/10/17 12:23:11;;;;;;;;;;;23.20;55.70;;;21.07;40.73;101558.72;10493736;28;19928;-87
2022/10/17 12:28:26;;;;;;;;;;;22.80;57.10;;;20.86;41.11;101556.16;10508591;28;19929;-87
2022/10/17 12:33:45;;;;;;;;;;;22.50;57.30;;;20.62;40.88;101557.50;10497915;28;19928;-90
2022/10/17 12:39:12;;;;;;;;;;;22.30;57.60;;;20.46;41.86;101556.00;10497217;28;19928;-87
2022/10/17 12:44:21;;;;;;;;;;;22.10;57.90;;;20.38;42.03;101548.00;10443401;28;19975;-89
2022/10/17 12:49:39;;;;;;;;;;;22.00;58.50;;;20.26;42.17;101544.22;10507537;28;19929;-87
2022/10/17 12:55:02;;;;;;;;;;;21.90;58.50;;;20.19;42.59;101546.88;10493862;28;20021;-87
2022/10/17 13:00:24;;;;;;;;;;;21.80;59.10;;;20.12;42.93;101545.16;10516625;28;19934;-88
2022/10/17 13:05:30;;;;;;;;;;;21.70;59.30;;;20.03;43.34;101545.34;10525344;28;20402;-87
2022/10/17 13:10:36;;;;;;;;;;;21.60;59.70;;;19.95;43.82;101539.25;10492078;28;19936;-87
2022/10/17 13:15:46;;;;;;;;;;;21.60;60.00;;;19.87;43.87;101537.53;10511092;28;19936;-88
2022/10/17 13:21:12;;;;;;;;;;;21.50;60.10;;;19.82;43.92;101537.28;10512257;28;19928;-88
2022/10/17 13:26:26;;;;;;;;;;;21.40;60.40;;;19.76;44.45;101530.81;10511260;28;19928;-88
2022/10/17 13:31:35;;;;;;;;;;;21.40;60.60;;;19.80;44.27;101530.44;10523770;28;19935;-88
2022/10/17 13:36:38;;;;;;;;;;;21.40;60.70;;;19.72;44.20;101526.00;10499485;28;20462;-88
2022/10/17 13:41:40;;;;;;;;;;;21.40;60.60;;;19.71;44.66;101524.34;10523430;28;19928;-88
2022/10/17 13:46:44;;;;;;;;;;;21.40;61.20;;;19.65;44.49;101528.63;10496302;28;19929;-87
2022/10/17 13:51:50;;;;;;;;;;;21.30;60.80;;;19.64;44.69;101523.44;10500439;28;19928;-88
2022/10/17 13:56:56;;;;;;;;;;;21.30;61.20;;;19.62;45.62;101517.44;10499386;28;19929;-85
2022/10/17 14:02:00;;;;;;;;;;;21.30;61.80;;;19.62;46.40;101520.13;10501974;28;19951;-84
2022/10/17 14:07:04;;;;;;;;;;;21.30;62.30;;;19.63;45.45;101513.69;10511734;28;19932;-84
2022/10/17 14:12:11;;;;;;;;;;;21.30;61.50;;;19.62;45.41;101510.19;10515579;28;19929;-85
2022/10/17 14:17:26;;;;;;;;;;;21.30;61.80;;;19.58;45.75;101500.78;10492400;28;19935;-84
2022/10/17 14:22:34;;;;;;;;;;;21.20;62.10;;;19.57;45.22;101503.66;10513914;28;19928;-84
2022/10/17 14:27:54;;;;;;;;;;;21.20;61.70;;;19.57;45.84;101506.38;10531031;28;19935;-85
2022/10/17 14:32:58;;;;;;;;;;;21.20;62.50;;;19.51;46.42;101508.81;10518683;28;19932;-86
2022/10/17 14:38:04;;;;;;;;;;;21.10;62.80;;;19.45;46.32;101506.88;10504254;28;19935;-86
2022/10/17 14:43:18;;;;;;;;;;;21.10;62.90;;;19.39;47.73;101514.91;10506691;28;19928;-86
2022/10/17 14:48:23;;;;;;;;;;;21.00;63.80;;;19.26;48.80;101502.16;10513296;28;19928;-85
2022/10/17 14:53:27;;;;;;;;;;;20.90;64.60;;;19.13;49.41;101499.31;10486736;28;19928;-87
2022/10/17 14:58:32;;;;;;;;;;;20.80;65.30;;;18.96;51.09;101504.16;10495554;28;19928;-88
2022/10/17 15:03:35;;;;;;;;;;;20.60;67.40;;;18.75;51.98;101507.63;10503608;28;19929;-87
2022/10/17 15:08:38;;;;;;;;;;;20.40;68.20;;;18.51;53.15;101505.22;10515355;28;19973;-85
2022/10/17 15:13:41;;;;;;;;;;;20.20;69.50;;;18.23;53.94;101511.28;10512030;28;19928;-85
2022/10/17 15:18:48;;;;;;;;;;;19.90;70.90;;;17.91;54.93;101510.63;10495845;28;20050;-83
2022/10/17 15:23:50;;;;;;;;;;;19.60;72.00;;;17.68;55.39;101515.19;10510248;28;19932;-83
2022/10/17 15:28:53;;;;;;;;;;;19.30;72.30;;;17.43;55.45;101524.50;10528240;28;19935;-83
2022/10/17 15:33:56;;;;;;;;;;;19.00;72.60;;;17.18;55.95;101529.22;10510518;28;20218;-83
2022/10/17 15:39:00;;;;;;;;;;;18.80;71.70;;;16.95;55.53;101532.72;10487028;28;19978;-83
2022/10/17 15:44:04;;;;;;;;;;;18.60;71.50;;;16.78;55.80;101541.88;10499711;28;19978;-83
2022/10/17 15:49:11;;;;;;;;;;;18.40;71.90;;;16.52;57.29;101544.84;10495144;28;19936;-83
2022/10/17 15:54:14;;;;;;;;;;;18.20;74.00;;;16.27;58.29;101546.78;10496716;28;20357;-83
2022/10/17 15:59:20;;;;;;;;;;;17.90;75.70;;;15.98;58.89;101552.69;10491838;28;19928;-83
2022/10/17 16:04:25;;;;;;;;;;;17.60;76.00;;;15.73;59.24;101560.78;10473125;28;20392;-83
2022/10/17 16:09:28;;;;;;;;;;;17.30;76.30;;;15.51;59.78;101556.03;10481330;28;19998;-85
2022/10/17 16:14:32;;;;;;;;;;;17.10;76.40;;;15.30;60.55;101558.38;10491168;28;20027;-85
2022/10/17 16:19:36;;;;;;;;;;;16.90;77.50;;;15.03;61.14;101556.81;10505796;28;19928;-90
2022/10/17 16:24:39;;;;;;;;;;;16.70;79.20;;;14.85;61.87;101573.00;10507625;28;19932;-88
2022/10/17 16:29:41;;;;;;;;;;;16.50;78.30;;;14.62;62.75;101570.06;10508037;28;19928;-86
2022/10/17 16:34:44;;;;;;;;;;;16.30;79.40;;;14.39;63.90;101575.97;10509281;28;19951;-88
2022/10/17 16:39:51;;;;;;;;;;;16.10;81.60;;;14.16;64.58;101578.34;10510816;28;19950;-88
2022/10/17 16:44:54;;;;;;;;;;;15.90;81.80;;;14.01;64.76;101592.41;10502317;28;19928;-89
2022/10/17 16:49:57;;;;;;;;;;;15.60;81.50;;;13.80;65.52;101588.28;10491126;28;19980;-88
2022/10/17 16:55:00;;;;;;;;;;;15.50;83.50;;;13.64;66.40;101602.31;10509664;28;19978;-86
2022/10/17 17:00:05;;;;;;;;;;;15.30;81.50;;;13.43;67.00;101596.44;10524481;28;20466;-84
2022/10/17 17:05:08;;;;;;;;;;;15.20;84.80;;;13.33;67.56;101599.19;10507922;28;19929;-89
2022/10/17 17:10:14;;;;;;;;;;;15.00;84.50;;;13.22;67.77;101606.59;10472938;28;20368;-89
2022/10/17 17:15:16;;;;;;;;;;;14.90;86.20;;;13.11;68.52;101616.44;10502343;28;19928;-89
2022/10/17 17:20:19;;;;;;;;;;;14.80;86.70;;;12.96;68.88;101609.13;10503017;28;20270;-89
2022/10/17 17:25:22;;;;;;;;;;;14.70;86.70;;;12.83;69.82;101618.31;10488181;28;19928;-88
2022/10/17 17:30:25;;;;;;;;;;;14.50;87.70;;;12.77;70.17;101613.53;10531597;28;19964;-88
2022/10/17 17:35:28;;;;;;;;;;;14.40;87.10;;;12.71;70.20;101614.13;10505470;28;19932;-89
2022/10/17 17:40:33;;;;;;;;;;;14.40;87.40;;;12.63;70.77;101608.69;10515122;28;20471;-87
2022/10/17 17:45:36;;;;;;;;;;;14.30;89.10;;;12.51;71.28;101607.19;10526644;28;19974;-88
2022/10/17 17:50:40;;;;;;;;;;;14.20;90.10;;;12.41;72.58;101625.03;10504644;28;20388;-82
2022/10/17 17:55:43;;;;;;;;;;;14.10;91.00;;;12.30;72.62;101623.41;10512537;28;19974;-83
2022/10/17 18:00:46;;;;;;;;;;;13.90;91.10;;;12.23;73.09;101627.63;10500231;28;20438;-83
2022/10/17 18:05:49;;;;;;;;;;;13.90;91.30;;;12.13;73.43;101622.31;10506280;28;19935;-83
2022/10/17 18:10:55;;;;;;;;;;;13.80;91.60;;;12.01;74.27;101618.97;10477916;28;20015;-84
2022/10/17 18:16:00;;;;;;;;;;;13.70;92.20;;;11.92;74.22;101611.00;10507344;28;19929;-84
2022/10/17 18:21:03;;;;;;;;;;;13.60;92.60;;;11.84;74.67;101619.69;10530244;28;19971;-85
2022/10/17 18:26:06;;;;;;;;;;;13.50;93.10;;;11.78;75.07;101609.56;10501979;28;19972;-84
2022/10/17 18:31:14;;;;;;;;;;;13.50;92.90;;;11.73;75.23;101610.00;10492241;28;20029;-85
2022/10/17 18:36:16;;;;;;;;;;;13.40;93.80;;;11.70;75.65;101617.44;10495926;28;20389;-83
2022/10/17 18:41:22;;;;;;;;;;;13.40;94.20;;;11.63;75.55;101617.13;10510169;28;20463;-83
2022/10/17 18:46:27;;;;;;;;;;;13.30;93.70;;;11.59;75.66;101617.56;10522290;28;19928;-83
2022/10/17 18:51:30;;;;;;;;;;;13.30;94.00;;;11.52;75.85;101604.81;10487206;28;19935;-83
2022/10/17 18:56:33;;;;;;;;;;;13.20;94.10;;;11.50;75.86;101613.91;10511320;28;20350;-83
2022/10/17 19:01:36;;;;;;;;;;;13.20;94.20;;;11.47;76.25;101614.22;10507597;28;19928;-83
2022/10/17 19:06:39;;;;;;;;;;;13.10;94.80;;;11.43;76.59;101618.97;10508399;28;19928;-83
2022/10/17 19:11:42;;;;;;;;;;;13.10;94.50;;;11.41;76.63;101615.59;10496124;28;19929;-83
2022/10/17 19:16:47;;;;;;;;;;;13.10;95.10;;;11.37;76.97;101616.84;10469218;28;19935;-82
2022/10/17 19:21:51;;;;;;;;;;;13.00;95.10;;;11.31;77.14;101612.06;10510613;28;19928;-82
2022/10/17 19:26:56;;;;;;;;;;;13.00;95.70;;;11.25;77.53;101607.31;10494808;28;20339;-82
2022/10/17 19:31:59;;;;;;;;;;;12.90;96.00;;;11.19;77.54;101611.34;10511818;28;19932;-82
2022/10/17 19:37:02;;;;;;;;;;;12.90;96.00;;;11.12;77.77;101617.38;10469141;28;19974;-82
2022/10/17 19:42:05;;;;;;;;;;;12.80;96.30;;;11.06;78.15;101612.59;10486667;28;19974;-83
2022/10/17 19:47:09;;;;;;;;;;;12.70;96.90;;;10.99;78.34;101621.13;10471967;28;19962;-83
2022/10/17 19:52:11;;;;;;;;;;;12.60;96.70;;;10.88;78.51;101604.44;10527733;28;20388;-82
2022/10/17 19:57:14;;;;;;;;;;;12.60;97.30;;;10.82;79.18;101610.28;10489969;28;19959;-82
2022/10/17 20:02:17;;;;;;;;;;;12.50;97.40;;;10.73;79.13;101617.25;10497005;28;19928;-83
2022/10/17 20:07:20;;;;;;;;;;;12.40;97.90;;;10.66;79.43;101616.94;10510090;28;19928;-83
2022/10/17 20:12:23;;;;;;;;;;;12.40;97.90;;;10.61;79.76;101615.66;10513305;28;19928;-83
2022/10/17 20:17:26;;;;;;;;;;;12.30;98.30;;;10.53;80.02;101626.13;10502295;28;19975;-82
2022/10/17 20:22:31;;;;;;;;;;;12.20;98.60;;;10.47;80.37;101626.66;10544942;28;19928;-82
2022/10/17 20:27:34;;;;;;;;;;;12.10;99.60;;;10.42;80.65;101621.72;10528554;28;19929;-82
2022/10/17 20:32:37;;;;;;;;;;;12.10;99.60;;;10.38;81.00;101620.31;10489199;28;20299;-82
2022/10/17 20:37:41;;;;;;;;;;;12.10;99.60;;;10.35;80.83;101624.06;10507297;28;19934;-83
2022/10/17 20:42:44;;;;;;;;;;;12.00;99.20;;;10.32;81.01;101628.81;10507663;28;20015;-83
2022/10/17 20:47:52;;;;;;;;;;;12.00;99.70;;;10.28;81.14;101620.25;10507362;28;19928;-83
2022/10/17 20:52:55;;;;;;;;;;;12.00;99.80;;;10.26;80.94;101622.22;10509167;28;19935;-83
2022/10/17 20:58:18;;;;;;;;;;;12.00;99.40;;;10.24;80.97;101620.66;10510917;28;19951;-83
2022/10/17 21:03:21;;;;;;;;;;;12.00;99.60;;;10.18;81.15;101621.97;10506374;28;19935;-83
2022/10/17 21:08:24;;;;;;;;;;;11.90;99.80;;;10.11;81.36;101624.31;10524690;28;19928;-84
2022/10/17 21:13:27;;;;;;;;;;;11.90;99.90;;;10.04;81.79;101625.81;10506843;28;19958;-83
2022/10/17 21:18:30;;;;;;;;;;;11.80;99.90;;;9.97;82.10;101622.00;10497844;28;19928;-83
2022/10/17 21:23:32;;;;;;;;;;;11.70;99.90;;;9.92;82.11;101625.03;10524277;28;20307;-83
2022/10/17 21:28:36;;;;;;;;;;;11.70;99.90;;;9.86;82.51;101624.72;10525236;28;20380;-83
2022/10/17 21:33:40;;;;;;;;;;;11.60;99.90;;;9.80;82.36;101623.41;10496123;28;20449;-83
2022/10/17 21:38:44;;;;;;;;;;;11.60;99.90;;;9.75;82.95;101625.59;10491013;28;19972;-84
2022/10/17 21:43:52;;;;;;;;;;;11.50;99.90;;;9.69;82.90;101620.78;10505996;28;19928;-84
2022/10/17 21:48:57;;;;;;;;;;;11.40;99.90;;;9.60;82.84;101625.06;10490154;28;19935;-84
2022/10/17 21:54:00;;;;;;;;;;;11.40;99.90;;;9.52;83.35;101608.91;10506925;28;20287;-84
2022/10/17 21:59:07;;;;;;;;;;;11.30;99.90;;;9.51;83.77;101617.00;10504395;28;19935;-84
2022/10/17 22:04:14;;;;;;;;;;;11.30;99.90;;;9.49;84.09;101614.50;10498155;28;20035;-83
2022/10/17 22:09:20;;;;;;;;;;;11.20;99.90;;;9.44;83.97;101607.88;10514470;28;19928;-83
2022/10/17 22:14:24;;;;;;;;;;;11.20;99.90;;;9.38;84.58;101612.72;10520454;28;19929;-83
2022/10/17 22:19:27;;;;;;;;;;;11.10;99.90;;;9.36;85.05;101606.69;10499774;28;19935;-83
2022/10/17 22:24:31;;;;;;;;;;;11.10;99.90;;;9.34;84.99;101603.31;10531066;28;19928;-82
2022/10/17 22:29:33;;;;;;;;;;;11.10;99.90;;;9.31;85.41;101598.28;10529217;28;19935;-83
2022/10/17 22:34:36;;;;;;;;;;;11.00;99.90;;;9.28;85.23;101601.16;10482745;28;20350;-82
2022/10/17 22:39:39;;;;;;;;;;;11.00;99.90;;;9.24;85.78;101610.34;10528532;28;19934;-83
2022/10/17 22:44:42;;;;;;;;;;;11.00;99.90;;;9.22;85.94;101600.81;10545038;28;19932;-83
2022/10/17 22:49:45;;;;;;;;;;;10.90;99.90;;;9.22;86.17;101591.06;10544765;28;19974;-82
2022/10/17 22:54:48;;;;;;;;;;;10.90;99.90;;;9.22;86.28;101596.34;10512444;28;20384;-83
2022/10/17 22:59:51;;;;;;;;;;;10.90;99.90;;;9.23;86.39;101591.88;10496647;28;19928;-83
2022/10/17 23:04:53;;;;;;;;;;;10.90;99.90;;;9.21;86.60;101596.50;10525379;28;20281;-83
2022/10/17 23:09:58;;;;;;;;;;;10.90;99.90;;;9.19;86.52;101593.97;10505495;28;19928;-83